Weather at Andrau Airpark [CLOSED]

Public forecast

Using degrees Fahrenheit for public forecast. Weather courtesy of forecast.io.

Closest aviation weather report (METAR) to Andrau Airpark

Closest report is Sugar Land Regional Airport, 7.0 nm (12.9 km) SSW.

2024/05/29 16:53 (retrieved 48 minutes ago)

KSGR 291653Z 09010KT 10SM OVC026 29/24 A3002 RMK AO2 RAB39E49 SLP168 P0000 T02890244

Closest aviation forecast (TAF) to Andrau Airpark

Closest forecast is Sugar Land Regional Airport, 7.0 nm (12.9 km) SSW.

2024/05/29 12:22 (retrieved 5 hours ago)

TAF KSGR 291120Z 2912/3012 05005KT 6SM BR VCSH BKN015 BKN020 FM291500 11009KT P6SM SCT020 BKN025 FM291700 12009KT P6SM SCT025 BKN035 FM292100 13011KT P6SM VCTS SCT045CB FM300000 11012KT P6SM OVC100 FM300600 13005KT P6SM OVC050